Greenehaven, Arizona
Current Conditions -  °F | °C
As of 7:53 AM on Wednesday 22 Oct 2014 (Local Time) from KBCE Reporting Station
Clear Clear  
Wind Chill: 26°   Ceiling: Unl
Heat Index: 32°   Visibility: 10mi
Dew Point: 30°   Wind: 7mph
Humidity: 92%   Direction: 270°W
Pressure: 30.23"   Gusts: NA
Location:  36.8282°N, 111.153°W
Report Text: KBCE 221353Z AUTO 27006KT 10SM CLR 00/M01 A3023 RMK AO2 SLP185 T00001011 TSNO
Loading
Personal Weather Stations






























Interactive Weather Map New forecast layout! Learn more

10-Day Weather Forecast

Advertisements
Track Severe Weather on mobile